createdAt,value
2018-02-23T00:02:07.361Z,-0.10
2018-02-23T00:04:34.354Z,-0.20
2018-02-23T00:07:00.503Z,-0.20
2018-02-23T00:09:26.598Z,-0.20
2018-02-23T00:11:53.319Z,-0.20
2018-02-23T00:14:19.500Z,-0.20
2018-02-23T00:16:45.697Z,-0.10
2018-02-23T00:19:13.782Z,-0.20
2018-02-23T00:21:41.642Z,-0.20
2018-02-23T00:24:08.637Z,-0.30
2018-02-23T00:26:34.785Z,-0.30
2018-02-23T00:29:01.877Z,-0.40
2018-02-23T00:31:28.151Z,-0.40
2018-02-23T00:33:55.452Z,-0.40
2018-02-23T00:36:22.412Z,-0.50
2018-02-23T00:38:48.716Z,-0.40
2018-02-23T00:41:14.846Z,-0.40
2018-02-23T00:43:41.053Z,-0.40
2018-02-23T00:46:07.910Z,-0.50
2018-02-23T00:48:34.244Z,-0.50
2018-02-23T00:51:00.427Z,-0.50
2018-02-23T00:53:27.333Z,-0.40
2018-02-23T00:55:53.963Z,-0.40
2018-02-23T00:58:21.030Z,-0.40
2018-02-23T01:00:47.566Z,-0.50
2018-02-23T01:03:13.754Z,-0.50
2018-02-23T01:05:40.684Z,-0.50
2018-02-23T01:08:07.341Z,-0.60
2018-02-23T01:10:35.985Z,-0.60
2018-02-23T01:13:04.436Z,-0.50
2018-02-23T01:15:30.736Z,-0.40
2018-02-23T01:17:57.054Z,-0.40
2018-02-23T01:20:23.328Z,-0.40
2018-02-23T01:22:49.605Z,-0.50
2018-02-23T01:25:15.976Z,-0.60
2018-02-23T01:27:42.206Z,-0.60
2018-02-23T01:30:08.841Z,-0.60
2018-02-23T01:32:34.973Z,-0.60
2018-02-23T01:35:01.180Z,-0.60
2018-02-23T01:37:28.124Z,-0.80
2018-02-23T01:39:55.034Z,-0.80
2018-02-23T01:42:22.158Z,-0.90
2018-02-23T01:44:48.355Z,-0.90
2018-02-23T01:47:14.498Z,-0.90
2018-02-23T01:49:40.719Z,-0.80
2018-02-23T01:52:07.617Z,-0.90
2018-02-23T01:54:33.872Z,-1.00
2018-02-23T01:57:00.122Z,-1.00
2018-02-23T01:59:26.698Z,-1.00
2018-02-23T02:01:53.235Z,-1.00
2018-02-23T02:04:19.977Z,-1.00
2018-02-23T02:06:46.993Z,-0.90
2018-02-23T02:09:13.831Z,-1.00
2018-02-23T02:11:39.945Z,-1.10
2018-02-23T02:14:06.204Z,-1.10
2018-02-23T02:16:32.412Z,-1.10
2018-02-23T02:18:58.956Z,-1.00
2018-02-23T02:21:25.173Z,-1.00
2018-02-23T02:23:51.709Z,-1.10
2018-02-23T02:26:17.981Z,-1.00
2018-02-23T02:28:44.150Z,-1.00
2018-02-23T02:31:10.362Z,-1.00
2018-02-23T02:33:37.667Z,-1.00
2018-02-23T02:36:04.588Z,-1.10
2018-02-23T02:38:30.869Z,-1.10
2018-02-23T02:40:57.112Z,-1.00
2018-02-23T02:43:23.258Z,-1.10
2018-02-23T02:45:49.498Z,-1.10
2018-02-23T02:48:15.796Z,-1.00
2018-02-23T02:50:44.192Z,-0.90
2018-02-23T02:53:14.248Z,-0.90
2018-02-23T02:55:40.419Z,-0.80
2018-02-23T02:58:06.996Z,-0.80
2018-02-23T03:00:33.211Z,-0.80
2018-02-23T03:03:00.878Z,-0.70
2018-02-23T03:05:28.057Z,-0.70
2018-02-23T03:07:54.833Z,-0.70
2018-02-23T03:10:21.012Z,-0.70
2018-02-23T03:12:47.188Z,-0.80
2018-02-23T03:15:15.015Z,-0.80
2018-02-23T03:17:41.230Z,-0.90
2018-02-23T03:20:08.930Z,-1.00
2018-02-23T03:22:35.134Z,-1.10
2018-02-23T03:25:02.309Z,-1.10
2018-02-23T03:27:28.584Z,-1.00
2018-02-23T03:29:54.921Z,-1.00
2018-02-23T03:32:21.260Z,-1.00
2018-02-23T03:34:49.068Z,-1.10
2018-02-23T03:37:15.664Z,-1.10
2018-02-23T03:39:54.002Z,-1.20
2018-02-23T03:42:20.287Z,-1.20
2018-02-23T03:44:47.923Z,-1.20
2018-02-23T03:47:14.642Z,-1.10
2018-02-23T03:49:40.799Z,-1.00
2018-02-23T03:52:07.020Z,-1.10
2018-02-23T03:54:33.174Z,-1.10
2018-02-23T03:57:01.002Z,-1.10
2018-02-23T03:59:27.220Z,-1.20
2018-02-23T04:01:54.308Z,-1.20
2018-02-23T04:04:21.680Z,-1.30
2018-02-23T04:06:48.073Z,-1.30
2018-02-23T04:09:14.520Z,-1.30
2018-02-23T04:11:41.112Z,-1.20
2018-02-23T04:14:07.289Z,-1.20
2018-02-23T04:16:33.407Z,-1.10
2018-02-23T04:19:00.231Z,-1.10
2018-02-23T04:21:27.425Z,-1.20
2018-02-23T04:23:54.433Z,-1.30
2018-02-23T04:26:20.658Z,-1.40
2018-02-23T04:28:46.811Z,-1.30
2018-02-23T04:31:13.034Z,-1.30
2018-02-23T04:33:39.162Z,-1.30
2018-02-23T04:36:05.286Z,-1.30
2018-02-23T04:38:31.415Z,-1.30
2018-02-23T04:40:57.638Z,-1.20
2018-02-23T04:43:23.802Z,-1.30
2018-02-23T04:45:50.226Z,-1.30
2018-02-23T04:48:16.322Z,-1.20
2018-02-23T04:50:43.557Z,-1.30
2018-02-23T04:53:10.530Z,-1.30
2018-02-23T04:55:39.008Z,-1.40
2018-02-23T04:58:05.863Z,-1.40
2018-02-23T05:00:33.382Z,-1.40
2018-02-23T05:02:59.517Z,-1.40
2018-02-23T05:05:25.689Z,-1.50
2018-02-23T05:07:53.489Z,-1.50
2018-02-23T05:10:20.173Z,-1.50
2018-02-23T05:12:46.558Z,-1.60
2018-02-23T05:15:12.735Z,-1.50
2018-02-23T05:17:38.897Z,-1.50
2018-02-23T05:20:05.805Z,-1.50
2018-02-23T05:22:32.020Z,-1.50
2018-02-23T05:24:58.360Z,-1.40
2018-02-23T05:27:25.219Z,-1.60
2018-02-23T05:29:51.412Z,-1.60
2018-02-23T05:32:18.041Z,-1.60
2018-02-23T05:34:45.018Z,-1.70
2018-02-23T05:37:11.446Z,-1.80
2018-02-23T05:39:39.094Z,-1.70
2018-02-23T05:42:06.027Z,-1.40
2018-02-23T05:44:32.213Z,-1.50
2018-02-23T05:46:58.484Z,-1.40
2018-02-23T05:49:24.591Z,-1.40
2018-02-23T05:51:50.839Z,-1.30
2018-02-23T05:54:17.064Z,-1.30
2018-02-23T05:56:43.554Z,-1.30
2018-02-23T05:59:10.207Z,-1.30
2018-02-23T06:01:39.568Z,-1.20
2018-02-23T06:04:06.199Z,-1.30
2018-02-23T06:06:32.531Z,-1.30
2018-02-23T06:08:58.739Z,-1.30
2018-02-23T06:11:26.321Z,-1.50
2018-02-23T06:13:52.958Z,-1.60
2018-02-23T06:16:26.554Z,-1.80
2018-02-23T06:18:54.786Z,-1.70
2018-02-23T06:21:22.327Z,-1.80
2018-02-23T06:23:48.483Z,-1.80
2018-02-23T06:26:15.241Z,-1.80
2018-02-23T06:28:41.389Z,-1.80
2018-02-23T06:31:09.317Z,-1.90
2018-02-23T06:33:35.440Z,-1.90
2018-02-23T06:36:03.027Z,-1.80
2018-02-23T06:38:29.373Z,-1.90
2018-02-23T06:40:55.642Z,-1.80
2018-02-23T06:43:21.927Z,-1.70
2018-02-23T06:45:48.720Z,-1.70
2018-02-23T06:48:14.845Z,-1.70
2018-02-23T06:50:42.068Z,-1.70
2018-02-23T06:53:09.037Z,-1.70
2018-02-23T06:55:35.324Z,-1.70
2018-02-23T06:58:01.506Z,-1.70
2018-02-23T07:00:28.652Z,-1.70
2018-02-23T07:02:56.112Z,-1.80
2018-02-23T07:05:22.246Z,-1.80
2018-02-23T07:07:49.642Z,-1.80
2018-02-23T07:10:15.926Z,-1.80
2018-02-23T07:12:42.872Z,-1.70
2018-02-23T07:15:09.125Z,-1.70
2018-02-23T07:17:36.194Z,-1.50
2018-02-23T07:20:03.410Z,-1.50
2018-02-23T07:22:29.631Z,-1.60
2018-02-23T07:24:56.859Z,-1.50
2018-02-23T07:27:25.035Z,-1.70
2018-02-23T07:29:51.997Z,-1.70
2018-02-23T07:32:18.219Z,-1.80
2018-02-23T07:34:44.617Z,-1.50
2018-02-23T07:37:11.571Z,-1.50
2018-02-23T07:39:39.356Z,-1.50
2018-02-23T07:42:09.235Z,-1.40
2018-02-23T07:44:37.052Z,-1.40
2018-02-23T07:47:04.361Z,-1.30
2018-02-23T07:49:31.776Z,-1.20
2018-02-23T07:51:59.509Z,-1.00
2018-02-23T07:54:26.843Z,-1.00
2018-02-23T07:56:54.482Z,-1.00
2018-02-23T07:59:21.977Z,-1.00
2018-02-23T08:01:48.146Z,-1.00
2018-02-23T08:04:14.466Z,-1.00
2018-02-23T08:06:40.648Z,-1.00
2018-02-23T08:09:06.978Z,-1.00
2018-02-23T08:11:33.564Z,-0.90
2018-02-23T08:13:59.896Z,-0.80
2018-02-23T08:16:26.630Z,-0.70
2018-02-23T08:18:52.807Z,-0.70
2018-02-23T08:21:18.927Z,-0.70
2018-02-23T08:23:45.043Z,-0.70
2018-02-23T08:26:11.426Z,-0.70
2018-02-23T08:28:37.874Z,-0.70
2018-02-23T08:31:04.988Z,-0.90
2018-02-23T08:33:32.704Z,-0.80
2018-02-23T08:35:58.906Z,-0.80
2018-02-23T08:38:25.910Z,-0.70
2018-02-23T08:40:54.342Z,-0.70
2018-02-23T08:43:20.981Z,-0.60
2018-02-23T08:45:47.664Z,-0.50
2018-02-23T08:48:15.400Z,-0.50
2018-02-23T08:50:41.625Z,-0.50
2018-02-23T08:53:07.844Z,-0.50
2018-02-23T08:55:34.575Z,-0.50
2018-02-23T08:58:00.661Z,-0.50
2018-02-23T09:00:27.541Z,-0.50
2018-02-23T09:02:57.842Z,-0.50
2018-02-23T09:05:24.871Z,-0.30
2018-02-23T09:07:51.355Z,-0.30
2018-02-23T09:10:18.398Z,-0.30
2018-02-23T09:12:45.734Z,-0.10
2018-02-23T09:15:11.979Z,0.00
2018-02-23T09:17:39.331Z,0.10
2018-02-23T09:20:06.380Z,0.10
2018-02-23T09:22:33.836Z,0.20
2018-02-23T09:25:00.225Z,0.20
2018-02-23T09:27:27.352Z,0.30
2018-02-23T09:29:53.635Z,0.40
2018-02-23T09:32:43.915Z,0.30
2018-02-23T09:35:10.494Z,0.30
2018-02-23T09:37:37.672Z,0.40
2018-02-23T09:40:04.324Z,0.50
2018-02-23T09:42:30.862Z,0.40
2018-02-23T09:44:58.129Z,0.40
2018-02-23T09:47:24.712Z,0.60
2018-02-23T09:49:50.860Z,0.70
2018-02-23T09:52:16.931Z,0.80
2018-02-23T09:54:43.314Z,0.90
2018-02-23T09:57:10.306Z,0.90
2018-02-23T09:59:36.654Z,0.90
2018-02-23T10:02:02.829Z,0.90
2018-02-23T10:04:29.273Z,0.90
2018-02-23T10:06:55.433Z,0.90
2018-02-23T10:09:21.831Z,1.00
2018-02-23T10:11:48.936Z,1.00
2018-02-23T10:14:15.167Z,0.90
2018-02-23T10:16:41.487Z,0.90
2018-02-23T10:19:08.264Z,1.00
2018-02-23T10:21:34.956Z,1.00
2018-02-23T10:24:01.682Z,1.10
2018-02-23T10:26:28.501Z,1.10
2018-02-23T10:28:55.405Z,1.20
2018-02-23T10:31:21.499Z,1.30
2018-02-23T10:33:47.786Z,1.30
2018-02-23T10:36:15.612Z,1.30
2018-02-23T10:38:41.786Z,1.00
2018-02-23T10:41:08.258Z,1.10
2018-02-23T10:43:35.182Z,1.10
2018-02-23T10:46:02.346Z,1.50
2018-02-23T10:48:29.336Z,1.50
2018-02-23T10:50:58.757Z,1.90
2018-02-23T10:53:25.647Z,1.90
2018-02-23T10:55:54.044Z,1.80
2018-02-23T10:58:20.316Z,1.80
2018-02-23T11:00:46.502Z,2.00
2018-02-23T11:03:14.196Z,2.50
2018-02-23T11:05:40.477Z,2.50
2018-02-23T11:08:07.116Z,2.70
2018-02-23T11:10:33.753Z,2.70
2018-02-23T11:13:01.825Z,2.80
2018-02-23T11:15:28.770Z,2.80
2018-02-23T11:17:54.993Z,2.70
2018-02-23T11:22:54.147Z,2.90
2018-02-23T11:25:20.339Z,2.90
2018-02-23T11:27:46.469Z,2.80
2018-02-23T11:30:13.466Z,3.00
2018-02-23T11:32:41.968Z,3.20
2018-02-23T11:35:09.644Z,3.30
2018-02-23T11:37:36.245Z,3.20
2018-02-23T11:40:03.435Z,3.20
2018-02-23T11:42:29.735Z,3.10
2018-02-23T11:44:59.012Z,3.20
2018-02-23T11:47:25.168Z,3.30
2018-02-23T11:49:51.715Z,3.40
2018-02-23T11:52:18.190Z,3.20
2018-02-23T11:54:47.798Z,3.50
2018-02-23T11:57:14.743Z,3.80
2018-02-23T11:59:42.295Z,3.80
2018-02-23T12:02:09.195Z,3.80
2018-02-23T12:04:35.319Z,4.00
2018-02-23T12:07:03.138Z,4.20
2018-02-23T12:09:29.334Z,4.20
2018-02-23T12:11:55.557Z,4.20
2018-02-23T12:14:23.185Z,4.30
2018-02-23T12:16:49.454Z,4.40
2018-02-23T12:19:15.645Z,4.30
2018-02-23T12:21:42.075Z,4.50
2018-02-23T12:24:09.587Z,4.60
2018-02-23T12:26:36.287Z,4.60
2018-02-23T12:29:03.907Z,3.60
2018-02-23T12:31:31.928Z,3.60
2018-02-23T12:33:58.247Z,3.90
2018-02-23T12:36:26.851Z,4.20
2018-02-23T12:38:53.942Z,3.80
2018-02-23T12:41:21.096Z,3.80
2018-02-23T12:43:47.364Z,3.90
2018-02-23T12:46:14.667Z,3.80
2018-02-23T12:48:40.738Z,3.80
2018-02-23T12:51:09.016Z,4.00
2018-02-23T12:53:35.252Z,4.50
2018-02-23T12:56:01.915Z,4.70
2018-02-23T12:58:29.493Z,4.80
2018-02-23T13:00:55.970Z,4.50
2018-02-23T13:03:22.995Z,4.70
2018-02-23T13:05:50.511Z,4.60
2018-02-23T13:08:16.755Z,4.90
2018-02-23T13:10:43.391Z,4.90
2018-02-23T13:13:09.776Z,5.10
2018-02-23T13:15:36.313Z,5.40
2018-02-23T13:18:02.641Z,5.30
2018-02-23T13:20:28.878Z,5.40
2018-02-23T13:22:55.091Z,5.40
2018-02-23T13:25:21.201Z,5.60
2018-02-23T13:27:53.706Z,5.90
2018-02-23T13:30:20.854Z,5.60
2018-02-23T13:32:47.085Z,5.40
2018-02-23T13:35:13.709Z,5.20
2018-02-23T13:37:40.593Z,5.40
2018-02-23T13:40:06.775Z,5.50
2018-02-23T13:42:33.399Z,5.00
2018-02-23T13:45:00.314Z,4.90
2018-02-23T13:47:26.829Z,4.90
2018-02-23T13:49:56.195Z,5.20
2018-02-23T13:52:23.250Z,5.00
2018-02-23T13:54:53.045Z,4.80
2018-02-23T13:57:20.739Z,4.80
2018-02-23T13:59:47.132Z,4.90
2018-02-23T14:02:15.878Z,5.10
2018-02-23T14:04:42.082Z,5.40
2018-02-23T14:07:15.160Z,5.30
2018-02-23T14:09:42.070Z,5.30
2018-02-23T14:12:08.634Z,5.60
2018-02-23T14:14:35.399Z,5.70
2018-02-23T14:17:02.060Z,5.40
2018-02-23T14:19:28.967Z,5.30
2018-02-23T14:21:55.380Z,5.70
2018-02-23T14:24:22.546Z,5.90
2018-02-23T14:26:49.706Z,5.70
2018-02-23T14:29:15.841Z,5.70
2018-02-23T14:31:42.311Z,5.70
2018-02-23T14:34:08.654Z,5.70
2018-02-23T14:36:34.911Z,5.90
2018-02-23T14:39:01.241Z,5.80
2018-02-23T14:41:27.441Z,5.60
2018-02-23T14:43:53.649Z,5.40
2018-02-23T14:46:19.867Z,5.30
2018-02-23T14:48:59.086Z,5.60
2018-02-23T14:51:27.029Z,5.90
2018-02-23T14:53:53.659Z,5.90
2018-02-23T14:56:21.249Z,5.60
2018-02-23T14:58:48.810Z,5.40
2018-02-23T15:01:15.724Z,5.50
2018-02-23T15:03:44.006Z,5.20
2018-02-23T15:06:11.347Z,4.90
2018-02-23T15:08:38.877Z,4.90
2018-02-23T15:11:05.676Z,5.20
2018-02-23T15:13:32.264Z,5.60
2018-02-23T15:15:59.070Z,5.50
2018-02-23T15:18:25.216Z,5.20
2018-02-23T15:20:51.594Z,5.20
2018-02-23T15:23:18.803Z,5.30
2018-02-23T15:25:45.039Z,5.20
2018-02-23T15:28:11.159Z,5.20
2018-02-23T15:30:49.652Z,5.30
2018-02-23T15:33:16.877Z,5.20
2018-02-23T15:35:45.719Z,4.90
2018-02-23T15:38:11.984Z,4.90
2018-02-23T15:40:39.866Z,4.90
2018-02-23T15:43:06.014Z,4.80
2018-02-23T15:45:32.147Z,4.80
2018-02-23T15:48:14.690Z,4.70
2018-02-23T15:50:47.170Z,4.40
2018-02-23T15:53:13.707Z,4.10
2018-02-23T15:55:41.033Z,4.00
2018-02-23T15:58:08.947Z,3.90
2018-02-23T16:00:35.228Z,3.90
2018-02-23T16:03:02.545Z,3.80
2018-02-23T16:05:28.873Z,3.70
2018-02-23T16:07:56.224Z,3.70
2018-02-23T16:10:23.161Z,3.70
2018-02-23T16:12:51.332Z,3.70
2018-02-23T16:15:17.862Z,3.70
2018-02-23T16:17:44.866Z,3.50
2018-02-23T16:20:11.089Z,3.50
2018-02-23T16:22:41.399Z,3.70
2018-02-23T16:25:07.897Z,3.70
2018-02-23T16:27:34.214Z,4.00
2018-02-23T16:30:02.098Z,4.30
2018-02-23T16:32:29.569Z,4.50
2018-02-23T16:34:57.658Z,4.00
2018-02-23T16:37:27.049Z,3.60
2018-02-23T16:39:54.214Z,3.60
2018-02-23T16:42:20.477Z,3.50
2018-02-23T16:44:46.897Z,3.60
2018-02-23T16:47:13.529Z,3.70
2018-02-23T16:49:40.714Z,3.70
2018-02-23T16:52:08.104Z,3.40
2018-02-23T16:54:35.798Z,3.10
2018-02-23T16:57:02.511Z,3.00
2018-02-23T16:59:29.318Z,2.90
2018-02-23T17:01:57.118Z,2.70
2018-02-23T17:04:23.448Z,2.60
2018-02-23T17:06:50.397Z,2.50
2018-02-23T17:09:17.635Z,2.50
2018-02-23T17:11:44.666Z,2.30
2018-02-23T17:14:12.968Z,2.20
2018-02-23T17:16:41.713Z,2.20
2018-02-23T17:19:08.095Z,2.10
2018-02-23T17:21:35.609Z,2.10
2018-02-23T17:24:02.197Z,2.10
2018-02-23T17:26:29.406Z,1.90
2018-02-23T17:28:56.339Z,1.90
2018-02-23T17:31:22.478Z,1.90
2018-02-23T17:33:49.731Z,1.90
2018-02-23T17:36:17.210Z,1.60
2018-02-23T17:38:46.711Z,1.60
2018-02-23T17:41:12.968Z,1.60
2018-02-23T17:43:39.562Z,1.50
2018-02-23T17:46:07.051Z,1.40
2018-02-23T17:48:33.387Z,1.50
2018-02-23T17:50:59.820Z,1.40
2018-02-23T17:53:26.176Z,1.40
2018-02-23T17:55:52.669Z,1.40
2018-02-23T17:58:19.091Z,1.40
2018-02-23T18:00:45.985Z,1.40
2018-02-23T18:03:12.266Z,1.30
2018-02-23T18:05:39.340Z,1.40
2018-02-23T18:08:06.809Z,1.30
2018-02-23T18:10:34.044Z,1.20
2018-02-23T18:13:03.011Z,1.20
2018-02-23T18:15:30.806Z,1.10
2018-02-23T18:17:57.341Z,1.20
2018-02-23T18:20:24.841Z,1.20
2018-02-23T18:22:51.482Z,1.30
2018-02-23T18:25:17.903Z,1.20
2018-02-23T18:27:46.109Z,1.20
2018-02-23T18:30:12.964Z,1.20
2018-02-23T18:32:39.177Z,1.20
2018-02-23T18:35:05.711Z,1.10
2018-02-23T18:37:32.138Z,1.00
2018-02-23T18:39:59.216Z,1.00
2018-02-23T18:42:25.731Z,0.90
2018-02-23T18:44:51.859Z,0.90
2018-02-23T18:47:18.385Z,0.90
2018-02-23T18:49:44.765Z,0.90
2018-02-23T18:52:11.093Z,0.80
2018-02-23T18:54:38.532Z,0.80
2018-02-23T18:57:05.444Z,0.80
2018-02-23T18:59:32.653Z,0.80
2018-02-23T19:01:59.505Z,0.60
2018-02-23T19:04:25.897Z,0.60
2018-02-23T19:06:52.475Z,0.60
2018-02-23T19:09:18.702Z,0.60
2018-02-23T19:11:46.015Z,0.60
2018-02-23T19:14:12.276Z,0.50
2018-02-23T19:16:39.288Z,0.50
2018-02-23T19:19:05.533Z,0.50
2018-02-23T19:21:31.643Z,0.50
2018-02-23T19:23:58.818Z,0.60
2018-02-23T19:26:25.469Z,0.50
2018-02-23T19:28:51.895Z,0.60
2018-02-23T19:31:18.850Z,0.50
2018-02-23T19:33:44.909Z,0.50
2018-02-23T19:36:11.700Z,0.40
2018-02-23T19:38:39.053Z,0.40
2018-02-23T19:41:05.274Z,0.30
2018-02-23T19:43:32.494Z,0.40
2018-02-23T19:45:58.574Z,0.30
2018-02-23T19:48:24.901Z,0.30
2018-02-23T19:50:51.152Z,0.30
2018-02-23T19:53:17.277Z,0.30
2018-02-23T19:55:45.551Z,0.20
2018-02-23T19:58:12.733Z,0.20
2018-02-23T20:00:38.880Z,0.20
2018-02-23T20:03:05.131Z,0.10
2018-02-23T20:05:31.646Z,0.10
2018-02-23T20:07:57.914Z,0.00
2018-02-23T20:10:24.482Z,0.00
2018-02-23T20:12:50.783Z,0.00
2018-02-23T20:15:17.467Z,0.10
2018-02-23T20:17:43.852Z,0.10
2018-02-23T20:20:10.663Z,0.10
2018-02-23T20:22:37.120Z,0.00
2018-02-23T20:25:03.655Z,-0.10
2018-02-23T20:27:30.516Z,-0.10
2018-02-23T20:29:56.887Z,-0.10
2018-02-23T20:32:24.036Z,-0.20
2018-02-23T20:34:50.466Z,-0.20
2018-02-23T20:37:16.794Z,-0.20
2018-02-23T20:39:43.420Z,-0.30
2018-02-23T20:42:09.956Z,-0.20
2018-02-23T20:44:37.124Z,-0.20
2018-02-23T20:47:03.705Z,-0.20
2018-02-23T20:49:29.813Z,-0.20
2018-02-23T20:51:56.103Z,-0.30
2018-02-23T20:54:24.202Z,-0.40
2018-02-23T20:56:50.371Z,-0.40
2018-02-23T20:59:17.681Z,-0.30
2018-02-23T21:01:46.793Z,-0.30
2018-02-23T21:04:13.129Z,-0.40
2018-02-23T21:06:39.521Z,-0.50
2018-02-23T21:09:05.686Z,-0.60
2018-02-23T21:11:31.739Z,-0.50
2018-02-23T21:13:58.558Z,-0.60
2018-02-23T21:16:25.390Z,-0.60
2018-02-23T21:18:51.547Z,-0.70
2018-02-23T21:21:17.775Z,-0.70
2018-02-23T21:23:44.056Z,-0.70
2018-02-23T21:26:11.047Z,-0.80
2018-02-23T21:28:37.962Z,-0.70
2018-02-23T21:31:04.096Z,-0.70
2018-02-23T21:33:31.063Z,-0.70
2018-02-23T21:35:57.139Z,-0.60
2018-02-23T21:38:23.395Z,-0.80
2018-02-23T21:40:49.523Z,-0.90
2018-02-23T21:43:15.780Z,-0.90
2018-02-23T21:45:42.157Z,-0.90
2018-02-23T21:48:08.405Z,-0.90
2018-02-23T21:50:35.955Z,-0.90
2018-02-23T21:53:02.146Z,-0.90
2018-02-23T21:55:28.256Z,-0.80
2018-02-23T21:57:54.351Z,-1.00
2018-02-23T22:00:21.097Z,-1.10
2018-02-23T22:02:48.856Z,-1.10
2018-02-23T22:05:15.035Z,-1.20
2018-02-23T22:07:41.110Z,-1.00
2018-02-23T22:10:10.782Z,-1.00
2018-02-23T22:12:37.817Z,-1.20
2018-02-23T22:15:04.022Z,-1.30
2018-02-23T22:17:30.892Z,-1.60
2018-02-23T22:19:57.023Z,-1.70
2018-02-23T22:22:23.811Z,-1.60
2018-02-23T22:24:52.336Z,-1.60
2018-02-23T22:27:18.443Z,-1.60
2018-02-23T22:29:44.488Z,-1.60
2018-02-23T22:32:11.333Z,-1.60
2018-02-23T22:34:39.468Z,-1.60
2018-02-23T22:37:05.671Z,-1.60
2018-02-23T22:39:32.309Z,-1.60
2018-02-23T22:41:58.538Z,-1.60
2018-02-23T22:44:25.407Z,-1.60
2018-02-23T22:46:51.996Z,-1.60
2018-02-23T22:49:19.133Z,-1.50
2018-02-23T22:51:45.223Z,-1.40
2018-02-23T22:54:11.453Z,-1.40
2018-02-23T22:56:37.544Z,-1.40
2018-02-23T22:59:04.294Z,-1.40
2018-02-23T23:01:31.471Z,-1.40
2018-02-23T23:03:57.523Z,-1.40
2018-02-23T23:06:23.542Z,-1.40
2018-02-23T23:08:50.060Z,-1.50
2018-02-23T23:11:16.886Z,-1.50
2018-02-23T23:13:42.969Z,-1.60
2018-02-23T23:16:09.043Z,-1.50
2018-02-23T23:18:35.330Z,-1.50
2018-02-23T23:21:03.478Z,-1.70
2018-02-23T23:23:30.340Z,-1.80
2018-02-23T23:25:56.939Z,-1.90
2018-02-23T23:28:23.509Z,-1.90
2018-02-23T23:30:49.692Z,-1.90
2018-02-23T23:33:15.821Z,-1.90
2018-02-23T23:35:41.943Z,-2.00
2018-02-23T23:38:07.999Z,-2.00
2018-02-23T23:40:34.086Z,-2.00
2018-02-23T23:43:00.259Z,-1.90
2018-02-23T23:45:28.159Z,-1.90
2018-02-23T23:47:54.612Z,-1.80
2018-02-23T23:50:20.678Z,-1.90
2018-02-23T23:52:46.754Z,-1.90
2018-02-23T23:55:12.867Z,-1.70
2018-02-23T23:57:40.032Z,-1.80
